TimeCST,TemperatureF,Dew PointF,Humidity,Sea Level PressureIn,VisibilityMPH,Wind Direction,Wind SpeedMPH,Gust SpeedMPH,PrecipitationIn,Events,Conditions,WindDirDegrees,DateUTC
12:15 AM,5.0,-7.6,56,30.13,10.0,NW,26.5,35.7,N/A,,Mostly Cloudy,310,2014-01-27 06:15:00
12:35 AM,3.2,-5.8,66,30.14,10.0,NW,25.3,38.0,N/A,,Overcast,310,2014-01-27 06:35:00
12:55 AM,3.2,-4.0,72,30.14,10.0,NW,25.3,33.4,N/A,,Overcast,320,2014-01-27 06:55:00
1:15 AM,3.2,-2.2,78,30.15,2.0,WNW,29.9,-,N/A,,Haze,300,2014-01-27 07:15:00
1:35 AM,3.2,-9.4,56,30.17,10.0,NW,24.2,35.7,N/A,,Mostly Cloudy,310,2014-01-27 07:35:00
1:55 AM,3.2,-7.6,61,30.18,10.0,NW,20.7,36.8,N/A,,Mostly Cloudy,320,2014-01-27 07:55:00
2:15 AM,1.4,-7.6,66,30.19,10.0,WNW,27.6,35.7,N/A,,Mostly Cloudy,300,2014-01-27 08:15:00
2:35 AM,1.4,-9.4,61,30.20,10.0,NW,23.0,33.4,N/A,,Overcast,310,2014-01-27 08:35:00
2:55 AM,1.4,-7.6,66,30.21,10.0,NW,23.0,32.2,N/A,,Mostly Cloudy,310,2014-01-27 08:55:00
3:15 AM,1.4,-9.4,61,30.23,10.0,NW,25.3,40.3,N/A,,Overcast,310,2014-01-27 09:15:00
3:35 AM,1.4,-9.4,61,30.24,10.0,NW,20.7,29.9,N/A,,Overcast,310,2014-01-27 09:35:00
3:55 AM,1.4,-9.4,61,30.25,10.0,NW,18.4,26.5,N/A,,Overcast,310,2014-01-27 09:55:00
4:15 AM,1.4,-9.4,61,30.26,10.0,WNW,24.2,29.9,N/A,,Overcast,300,2014-01-27 10:15:00
4:35 AM,1.4,-9.4,61,30.26,10.0,WNW,24.2,32.2,N/A,,Overcast,300,2014-01-27 10:35:00
4:55 AM,-0.4,-11.2,60,30.27,10.0,WNW,26.5,34.5,N/A,,Overcast,300,2014-01-27 10:55:00
5:15 AM,-0.4,-11.2,60,30.28,10.0,NW,23.0,31.1,N/A,,Overcast,310,2014-01-27 11:15:00
5:35 AM,-0.4,-9.4,66,30.28,10.0,WNW,19.6,-,N/A,,Overcast,300,2014-01-27 11:35:00
5:55 AM,-0.4,-9.4,66,30.30,10.0,NW,18.4,29.9,N/A,,Overcast,310,2014-01-27 11:55:00
6:15 AM,-0.4,-11.2,60,30.31,10.0,WNW,20.7,31.1,N/A,,Overcast,300,2014-01-27 12:15:00
6:35 AM,-0.4,-11.2,60,30.32,10.0,WNW,20.7,26.5,N/A,,Overcast,300,2014-01-27 12:35:00
6:55 AM,-0.4,-11.2,60,30.34,10.0,NW,15.0,23.0,N/A,,Overcast,310,2014-01-27 12:55:00
7:15 AM,-0.4,-13.0,55,30.34,10.0,WNW,19.6,-,N/A,,Overcast,300,2014-01-27 13:15:00
7:35 AM,-2.2,-11.2,66,30.35,10.0,NW,18.4,-,N/A,,Overcast,310,2014-01-27 13:35:00
7:55 AM,-2.2,-13.0,60,30.36,10.0,WNW,18.4,24.2,N/A,,Overcast,300,2014-01-27 13:55:00
8:15 AM,-0.4,-11.2,60,30.37,10.0,NW,17.3,-,N/A,,Overcast,310,2014-01-27 14:15:00
8:35 AM,-2.2,-13.0,60,30.37,10.0,NW,19.6,26.5,N/A,,Overcast,320,2014-01-27 14:35:00
8:55 AM,-2.2,-13.0,60,30.38,10.0,NW,21.9,33.4,N/A,,Overcast,310,2014-01-27 14:55:00
9:15 AM,-0.4,-11.2,60,30.40,10.0,WNW,23.0,29.9,N/A,,Overcast,300,2014-01-27 15:15:00
9:35 AM,-0.4,-13.0,55,30.41,10.0,NW,19.6,27.6,N/A,,Overcast,310,2014-01-27 15:35:00
9:55 AM,-0.4,-13.0,55,30.41,10.0,NW,25.3,33.4,N/A,,Mostly Cloudy,320,2014-01-27 15:55:00
10:15 AM,-0.4,-13.0,55,30.42,10.0,NW,23.0,-,N/A,,Mostly Cloudy,310,2014-01-27 16:15:00
10:35 AM,-0.4,-13.0,55,30.43,10.0,NW,24.2,31.1,N/A,,Overcast,320,2014-01-27 16:35:00
10:55 AM,1.4,-11.2,56,30.44,10.0,NW,19.6,31.1,N/A,,Overcast,310,2014-01-27 16:55:00
11:15 AM,1.4,-13.0,51,30.44,10.0,NW,21.9,29.9,N/A,,Mostly Cloudy,310,2014-01-27 17:15:00
11:35 AM,1.4,-13.0,51,30.44,10.0,NW,23.0,31.1,N/A,,Overcast,310,2014-01-27 17:35:00
11:55 AM,1.4,-13.0,51,30.44,10.0,NW,19.6,28.8,N/A,,Overcast,310,2014-01-27 17:55:00
12:15 PM,1.4,-11.2,56,30.44,10.0,NW,20.7,28.8,N/A,,Overcast,310,2014-01-27 18:15:00
12:35 PM,1.4,-11.2,56,30.43,10.0,NW,23.0,29.9,N/A,,Overcast,310,2014-01-27 18:35:00
12:55 PM,1.4,-11.2,56,30.43,10.0,NW,21.9,27.6,N/A,,Mostly Cloudy,310,2014-01-27 18:55:00
1:15 PM,1.4,-11.2,56,30.43,10.0,NW,20.7,26.5,N/A,,Mostly Cloudy,320,2014-01-27 19:15:00
1:35 PM,3.2,-11.2,51,30.43,10.0,NW,17.3,26.5,N/A,,Scattered Clouds,310,2014-01-27 19:35:00
1:55 PM,3.2,-11.2,51,30.44,10.0,NW,21.9,27.6,N/A,,Mostly Cloudy,310,2014-01-27 19:55:00
2:15 PM,3.2,-11.2,51,30.44,10.0,NW,20.7,26.5,N/A,,Partly Cloudy,320,2014-01-27 20:15:00
2:35 PM,3.2,-11.2,51,30.44,10.0,WNW,17.3,25.3,N/A,,Clear,300,2014-01-27 20:35:00
2:55 PM,3.2,-11.2,51,30.45,10.0,NW,18.4,24.2,N/A,,Partly Cloudy,320,2014-01-27 20:55:00
3:15 PM,3.2,-11.2,51,30.45,10.0,NW,19.6,27.6,N/A,,Scattered Clouds,320,2014-01-27 21:15:00
3:35 PM,3.2,-11.2,51,30.46,10.0,NNW,17.3,-,N/A,,Clear,330,2014-01-27 21:35:00
3:55 PM,3.2,-13.0,47,30.46,10.0,NNW,17.3,-,N/A,,Clear,330,2014-01-27 21:55:00
4:15 PM,3.2,-11.2,51,30.47,10.0,WNW,16.1,23.0,N/A,,Clear,300,2014-01-27 22:15:00
4:35 PM,3.2,-11.2,51,30.47,10.0,WNW,17.3,-,N/A,,Partly Cloudy,300,2014-01-27 22:35:00
4:55 PM,1.4,-11.2,56,30.47,10.0,NW,11.5,-,N/A,,Partly Cloudy,310,2014-01-27 22:55:00
5:15 PM,1.4,-11.2,56,30.48,10.0,NW,11.5,-,N/A,,Clear,310,2014-01-27 23:15:00
5:35 PM,1.4,-11.2,56,30.49,10.0,NW,12.7,-,N/A,,Clear,320,2014-01-27 23:35:00
5:55 PM,1.4,-11.2,56,30.49,10.0,NW,8.1,-,N/A,,Clear,310,2014-01-27 23:55:00
6:15 PM,-0.4,-11.2,60,30.49,10.0,NW,10.4,-,N/A,,Clear,320,2014-01-28 00:15:00
6:35 PM,-0.4,-9.4,66,30.49,10.0,NW,6.9,-,N/A,,Clear,320,2014-01-28 00:35:00
6:55 PM,-0.4,-9.4,66,30.50,10.0,NW,8.1,-,N/A,,Clear,320,2014-01-28 00:55:00
7:15 PM,-0.4,-9.4,66,30.50,10.0,NW,6.9,-,N/A,,Clear,310,2014-01-28 01:15:00
7:35 PM,-0.4,-9.4,66,30.50,10.0,NW,8.1,-,N/A,,Clear,320,2014-01-28 01:35:00
7:55 PM,-0.4,-9.4,66,30.50,10.0,NW,6.9,-,N/A,,Clear,320,2014-01-28 01:55:00
8:15 PM,-2.2,-9.4,71,30.51,10.0,NW,5.8,-,N/A,,Clear,320,2014-01-28 02:15:00
8:35 PM,-2.2,-9.4,71,30.51,10.0,NW,5.8,-,N/A,,Clear,320,2014-01-28 02:35:00
8:55 PM,-2.2,-9.4,71,30.51,10.0,NW,5.8,-,N/A,,Clear,310,2014-01-28 02:55:00
9:15 PM,-2.2,-9.4,71,30.51,10.0,NW,5.8,-,N/A,,Clear,310,2014-01-28 03:15:00
9:35 PM,-2.2,-9.4,71,30.51,10.0,WNW,5.8,-,N/A,,Clear,300,2014-01-28 03:35:00
9:55 PM,-4.0,-11.2,71,30.52,10.0,SW,4.6,-,N/A,,Clear,230,2014-01-28 03:55:00
10:15 PM,-2.2,-9.4,71,30.52,10.0,West,4.6,-,N/A,,Clear,260,2014-01-28 04:15:00
10:35 PM,-4.0,-9.4,78,30.52,10.0,NW,4.6,-,N/A,,Clear,320,2014-01-28 04:35:00
10:55 PM,-4.0,-9.4,78,30.51,10.0,WSW,3.5,-,N/A,,Clear,250,2014-01-28 04:55:00
11:15 PM,-4.0,-9.4,78,30.52,10.0,WSW,5.8,-,N/A,,Clear,240,2014-01-28 05:15:00
11:35 PM,-4.0,-9.4,78,30.52,-9999.0,SW,5.8,-,N/A,,Clear,230,2014-01-28 05:35:00
11:55 PM,-4.0,-11.2,71,30.52,10.0,West,5.8,-,N/A,,Clear,260,2014-01-28 05:55:00